URMM

Details ICAO URMM (MRV)
Name MINERALNYYE VODY
Region Russia
Timezone Europe/Moscow (UTC+3.0)
Plans Departing 187
Arriving 183
Stats Elevation 1,054 ft / 321 m (AMSL)
Location 44.225100° 43.081900°
Runways 1
Magnetic Variation 7.512° E
Sunrise 2019-05-20 01:37:51 UTC / 2019-05-20 04:37:51 Local
Sunset 2019-05-20 16:33:21 UTC / 2019-05-20 19:33:21 Local
Advertisement - Login to hide

Runways

ID Width Length Bearing (true/mag) Surface Threshold Overrun Markings Lighting
12 197 ft / 60 m 12,766 ft / 3,891 m 122.28° / 114.76° CONCRETE 0 ft / 0 m 240 ft / 73 m APP CENTERLINE EDGE THRESHOLD MALS TDZ
30 197 ft / 60 m 12,766 ft / 3,891 m 302.31° / 294.79° CONCRETE 0 ft / 0 m 250 ft / 76 m APP CENTERLINE EDGE THRESHOLD MALS

Map

Weather


0- 5 10 15 20 25 30 35+ Temperature / °C

Clouds and Precipitation
Forecast for 2019-05-20 00:00 UTC. Updated 5 hours ago

Ground ~20,000 ft ~40,000 ft Winds

METAR

URMM 200230Z 27002MPS 9999 SCT050 BKN/// 15/12 Q1013 R12/090070 TEMPO 3100 -TSRAGR BKN011 BKN020CB RMK QFE732/0976

TAF

TAF AMD URMM 200227Z 2003/2103 09003G08MPS 9999 BKN020 TX24/2012Z TN15/2003Z TEMPO 2003/2103 VRB05G14MPS 3100 -TSRAGR BKN011 BKN020CB

Frequencies

Approach 119.30 MHz
Ground 121.90 MHz TAXIING
Recorded 127.40 MHz ATIS
Tower 128.00 MHz START
Warning: Do not use this data for real-world aviation or navigation. No guarantee of current accuracy is given.